Dyess Air Force Base
KDYS : now visible

Airfield :











YOU CAN JOIN US ON...

 
LOGIN :

Register | Disclaimer

   EN    FR    IT 

 









Legend :    VFR   Marginal VFR   IFR   Intensive IFR   Very Intensive IFR
Visi :
Ceiling :
>= 8 km
>= 3000ft
5 to 8 km
1000 to 3000 ft
1500m to 5 km
500 to 1000 ft
800 to 1500m
200 to 500 ft
< 800m
< 200 ft
Symbols :   Thunderstorms  Fog  Heavy snow  Heavy precipitations  Wind > 20 kt






- Airport Elevation : 1789 ft


KDYS - Dyess Air Force Base

CURRENT METAR :
  • 111256Z AUTO 18012KT 10SM FEW170 27/17 M RMK AO2 SLPNO T02660171 VISNO RWY34 CHINO RWY34 $

EXPIRED METARs :
  • 111156Z 17016KT 10SM FEW200 27/17 A3001 RMK AO2A SLPNO T02670166 10300 20267
  • 111056Z 17015KT 10SM CLR 27/16 A2992 RMK AO2A SLPNO T02720162

TAF TAF KDYS
Valid from the 11 at 08:00 until the 12 at 14:00 UTC


1108/1214 16009KT 9999 SKC QNH3000INS
TEMPO 1109/1110 34012G18KT
BECMG 1112/1113 17015G25KT 9999 SKC QNH2998INS
BECMG 1121/1122 17012G18KT 9999 SKC QNH2986INS
BECMG 1201/1202 17012KT 9999 SKC QNH2987INS
TEMPO 1212/1214 17015G25KT TX38/1122Z TN24/1112Z
KZFW FIR / North America



MET'MAP, your aeronautical weather chart ! - Copyright ORBIFLY December 2007 - Disclaimer

ORBIFLY MET'MAP TEAM :

Programming & Development : Alexandra Zaïnal
Concept & original design : Baudouin d'Aumeries
Assistance for programming : Marc-Olivier Méhu
Technical & hardware support : Manuel Goepfert

Contact : metmap@orbifly.com




SOURCES & CREDITS :

   NOAA       Earth
Advisory